PWSweather.com
Personal Weather Stations
Station Observations

MakarauRodneyNZ

Lat: -36.52421, Lon: 174.47572

Elevation: 606

Station Type: Davis VP2

http://kaiparaweather.dynu.net/index.php

High Low Average
Temperature 70.6°F21.4°C 59.0°F15.0°C 63.8°F17.7°C
Dew Point 63.1°F17.3°C 55.5°F13.1°C 58.9°F14.9°C
Winds 13.8 mph 22.2 kmh Calm Calm 6.0 mph W9.7 kmh W
Wind Gusts 23.0 mph37.0 kmh -- 12.0 mph19.3 kmh
Humidity 94% 67% 85%
Pressure 29.70 in1005.8 mb 29.55 in1000.7 mb -
Precipitation 0.09 in2.3 mm - -
Hour Temp Dew Point Humidity Winds Wind Gusts Pressure Precip Precip Rate Daily Precip Total
12:00 AM 61.9°F16.6°C 59.9°F15.5°C 93% 8.1 mph W13.0 kmh W 16.1 mph25.9 kmh 29.58 in1001.7 mb - 0.00 in0.0 mm 0.01 in0.3 mm
12:10 AM 62.2°F16.8°C 59.8°F15.4°C 92% 10.4 mph W16.7 kmh W 16.1 mph25.9 kmh 29.58 in1001.7 mb - 0.00 in0.0 mm 0.01 in0.3 mm
12:20 AM 62.6°F17.0°C 60.5°F15.8°C 93% 5.8 mph WNW9.3 kmh WNW 19.6 mph31.5 kmh 29.57 in1001.4 mb - 0.00 in0.0 mm 0.01 in0.3 mm
12:30 AM 62.6°F17.0°C 60.2°F15.7°C 92% 10.4 mph NW16.7 kmh NW 16.1 mph25.9 kmh 29.57 in1001.4 mb - 0.01 in0.3 mm 0.02 in0.5 mm
12:40 AM 62.5°F16.9°C 60.1°F15.6°C 92% 9.2 mph NW14.8 kmh NW 15.0 mph24.1 kmh 29.57 in1001.4 mb - 0.00 in0.0 mm 0.02 in0.5 mm
12:50 AM 62.1°F16.7°C 59.7°F15.4°C 92% 5.8 mph W9.3 kmh W 10.4 mph16.7 kmh 29.57 in1001.4 mb - 0.00 in0.0 mm 0.02 in0.5 mm
01:00 AM 62.2°F16.8°C 60.2°F15.7°C 93% 8.1 mph WSW13.0 kmh WSW 16.1 mph25.9 kmh 29.57 in1001.4 mb - 0.00 in0.0 mm 0.02 in0.5 mm
01:10 AM 62.2°F16.8°C 60.2°F15.7°C 93% 8.1 mph NW13.0 kmh NW 13.8 mph22.2 kmh 29.57 in1001.4 mb - 0.00 in0.0 mm 0.02 in0.5 mm
01:20 AM 62.0°F16.7°C 60.0°F15.6°C 93% 4.6 mph NW7.4 kmh NW 5.8 mph9.3 kmh 29.56 in1001.0 mb - 0.00 in0.0 mm 0.02 in0.5 mm
01:30 AM 62.0°F16.7°C 59.9°F15.5°C 93% 4.6 mph WSW7.4 kmh WSW 9.2 mph14.8 kmh 29.56 in1001.0 mb - 0.02 in0.5 mm 0.04 in1.0 mm
01:40 AM 61.9°F16.6°C 59.9°F15.5°C 93% 5.8 mph WNW9.3 kmh WNW 11.5 mph18.5 kmh 29.56 in1001.0 mb - 0.00 in0.0 mm 0.04 in1.0 mm
01:50 AM 61.9°F16.6°C 59.9°F15.5°C 93% Calm Calm 9.2 mph14.8 kmh 29.56 in1001.0 mb - 0.00 in0.0 mm 0.04 in1.0 mm
02:00 AM 61.9°F16.6°C 59.8°F15.4°C 93% 1.2 mph WSW1.9 kmh WSW -- 29.56 in1001.0 mb - 0.00 in0.0 mm 0.04 in1.0 mm
02:10 AM 61.9°F16.6°C 60.2°F15.7°C 94% 2.3 mph WSW3.7 kmh WSW 5.8 mph9.3 kmh 29.56 in1001.0 mb - 0.00 in0.0 mm 0.04 in1.0 mm
02:20 AM 62.0°F16.7°C 60.3°F15.7°C 94% 3.5 mph W5.6 kmh W 10.4 mph16.7 kmh 29.56 in1001.0 mb - 0.00 in0.0 mm 0.04 in1.0 mm
02:30 AM 62.0°F16.7°C 60.2°F15.7°C 94% 6.9 mph WNW11.1 kmh WNW 12.7 mph20.4 kmh 29.56 in1001.0 mb - 0.00 in0.0 mm 0.04 in1.0 mm
02:40 AM 61.6°F16.4°C 59.6°F15.3°C 93% 1.2 mph WSW1.9 kmh WSW -- 29.55 in1000.7 mb - 0.00 in0.0 mm 0.04 in1.0 mm
02:50 AM 61.3°F16.3°C 59.3°F15.2°C 93% 9.2 mph NW14.8 kmh NW 18.4 mph29.6 kmh 29.55 in1000.7 mb - 0.00 in0.0 mm 0.04 in1.0 mm
03:00 AM 61.3°F16.3°C 59.3°F15.2°C 93% 3.5 mph W5.6 kmh W 11.5 mph18.5 kmh 29.55 in1000.7 mb - 0.00 in0.0 mm 0.04 in1.0 mm
03:10 AM 61.1°F16.2°C 59.1°F15.1°C 93% 3.5 mph WSW5.6 kmh WSW 10.4 mph16.7 kmh 29.55 in1000.7 mb - 0.00 in0.0 mm 0.04 in1.0 mm
03:20 AM 60.8°F16.0°C 58.8°F14.9°C 93% Calm Calm -- 29.55 in1000.7 mb - 0.00 in0.0 mm 0.04 in1.0 mm
03:30 AM 60.8°F16.0°C 58.8°F14.9°C 93% 1.2 mph WSW1.9 kmh WSW 3.5 mph5.6 kmh 29.55 in1000.7 mb - 0.00 in0.0 mm 0.04 in1.0 mm
03:40 AM 60.9°F16.1°C 58.9°F14.9°C 93% 3.5 mph WSW5.6 kmh WSW 12.7 mph20.4 kmh 29.56 in1001.0 mb - 0.00 in0.0 mm 0.04 in1.0 mm
03:50 AM 61.0°F16.1°C 58.9°F14.9°C 93% Calm Calm 3.5 mph5.6 kmh 29.56 in1001.0 mb - 0.00 in0.0 mm 0.04 in1.0 mm
04:00 AM 61.0°F16.1°C 59.0°F15.0°C 93% 3.5 mph W5.6 kmh W 9.2 mph14.8 kmh 29.55 in1000.7 mb - 0.00 in0.0 mm 0.04 in1.0 mm
04:10 AM 61.1°F16.2°C 59.1°F15.1°C 93% Calm Calm -- 29.56 in1001.0 mb - 0.00 in0.0 mm 0.04 in1.0 mm
04:20 AM 61.1°F16.2°C 59.1°F15.1°C 93% 4.6 mph WSW7.4 kmh WSW 11.5 mph18.5 kmh 29.56 in1001.0 mb - 0.00 in0.0 mm 0.04 in1.0 mm
04:30 AM 61.0°F16.1°C 59.0°F15.0°C 93% 3.5 mph NW5.6 kmh NW 6.9 mph11.1 kmh 29.57 in1001.4 mb - 0.00 in0.0 mm 0.04 in1.0 mm
04:40 AM 61.0°F16.1°C 59.0°F15.0°C 93% Calm Calm -- 29.57 in1001.4 mb - 0.00 in0.0 mm 0.04 in1.0 mm
04:50 AM 61.2°F16.2°C 59.1°F15.1°C 93% 5.8 mph W9.3 kmh W 11.5 mph18.5 kmh 29.57 in1001.4 mb - 0.00 in0.0 mm 0.04 in1.0 mm
05:00 AM 61.4°F16.3°C 59.4°F15.2°C 93% 4.6 mph NW7.4 kmh NW 8.1 mph13.0 kmh 29.57 in1001.4 mb - 0.00 in0.0 mm 0.04 in1.0 mm
05:10 AM 61.6°F16.4°C 59.6°F15.3°C 93% 6.9 mph NW11.1 kmh NW 10.4 mph16.7 kmh 29.58 in1001.7 mb - 0.00 in0.0 mm 0.04 in1.0 mm
05:20 AM 61.9°F16.6°C 59.9°F15.5°C 93% 1.2 mph NW1.9 kmh NW 8.1 mph13.0 kmh 29.58 in1001.7 mb - 0.00 in0.0 mm 0.04 in1.0 mm
05:30 AM 62.0°F16.7°C 59.9°F15.5°C 93% 3.5 mph NW5.6 kmh NW 10.4 mph16.7 kmh 29.58 in1001.7 mb - 0.00 in0.0 mm 0.04 in1.0 mm
05:40 AM 61.8°F16.6°C 59.8°F15.4°C 93% 1.2 mph NW1.9 kmh NW 6.9 mph11.1 kmh 29.58 in1001.7 mb - 0.00 in0.0 mm 0.04 in1.0 mm
05:50 AM 61.6°F16.4°C 59.6°F15.3°C 93% 1.2 mph WSW1.9 kmh WSW 6.9 mph11.1 kmh 29.59 in1002.0 mb - 0.00 in0.0 mm 0.04 in1.0 mm
06:00 AM 62.0°F16.7°C 59.9°F15.5°C 93% Calm Calm -- 29.59 in1002.0 mb - 0.00 in0.0 mm 0.04 in1.0 mm
06:10 AM 62.7°F17.1°C 60.7°F15.9°C 93% 1.2 mph WSW1.9 kmh WSW -- 29.59 in1002.0 mb - 0.00 in0.0 mm 0.04 in1.0 mm
06:20 AM 63.6°F17.6°C 61.6°F16.4°C 93% 2.3 mph NW3.7 kmh NW 8.1 mph13.0 kmh 29.60 in1002.4 mb - 0.00 in0.0 mm 0.04 in1.0 mm
06:30 AM 63.0°F17.2°C 60.6°F15.9°C 92% 4.6 mph WNW7.4 kmh WNW 13.8 mph22.2 kmh 29.59 in1002.0 mb - 0.01 in0.3 mm 0.05 in1.3 mm
06:40 AM 63.2°F17.3°C 60.9°F16.1°C 92% 5.8 mph WNW9.3 kmh WNW 18.4 mph29.6 kmh 29.60 in1002.4 mb - 0.00 in0.0 mm 0.05 in1.3 mm
06:50 AM 62.6°F17.0°C 60.2°F15.7°C 92% 2.3 mph WSW3.7 kmh WSW 11.5 mph18.5 kmh 29.61 in1002.7 mb - 0.01 in0.3 mm 0.06 in1.5 mm
07:00 AM 62.3°F16.8°C 60.0°F15.6°C 92% 3.5 mph WSW5.6 kmh WSW 4.6 mph7.4 kmh 29.61 in1002.7 mb - 0.00 in0.0 mm 0.06 in1.5 mm
07:10 AM 63.9°F17.7°C 61.8°F16.6°C 93% 8.1 mph NW13.0 kmh NW 15.0 mph24.1 kmh 29.62 in1003.0 mb - 0.00 in0.0 mm 0.06 in1.5 mm
07:20 AM 65.5°F18.6°C 63.1°F17.3°C 92% 5.8 mph WNW9.3 kmh WNW 12.7 mph20.4 kmh 29.62 in1003.0 mb - 0.00 in0.0 mm 0.06 in1.5 mm
07:30 AM 65.7°F18.7°C 62.4°F16.9°C 89% 4.6 mph W7.4 kmh W 12.7 mph20.4 kmh 29.62 in1003.0 mb - 0.00 in0.0 mm 0.06 in1.5 mm
07:40 AM 66.3°F19.1°C 62.6°F17.0°C 88% 6.9 mph WSW11.1 kmh WSW 9.2 mph14.8 kmh 29.62 in1003.0 mb - 0.00 in0.0 mm 0.06 in1.5 mm
07:50 AM 66.4°F19.1°C 61.8°F16.6°C 85% 4.6 mph WSW7.4 kmh WSW 8.1 mph13.0 kmh 29.62 in1003.0 mb - 0.00 in0.0 mm 0.06 in1.5 mm
08:00 AM 66.2°F19.0°C 61.9°F16.6°C 86% 1.2 mph WSW1.9 kmh WSW 10.4 mph16.7 kmh 29.62 in1003.0 mb - 0.01 in0.3 mm 0.06 in1.5 mm
08:10 AM 65.7°F18.7°C 61.4°F16.3°C 86% 2.3 mph WSW3.7 kmh WSW 8.1 mph13.0 kmh 29.62 in1003.0 mb - 0.00 in0.0 mm 0.06 in1.5 mm
08:20 AM 65.6°F18.7°C 61.3°F16.3°C 86% 5.8 mph WSW9.3 kmh WSW 11.5 mph18.5 kmh 29.62 in1003.0 mb - 0.00 in0.0 mm 0.06 in1.5 mm
08:30 AM 66.9°F19.4°C 61.9°F16.6°C 84% 5.8 mph WSW9.3 kmh WSW 5.8 mph9.3 kmh 29.62 in1003.0 mb - 0.00 in0.0 mm 0.06 in1.5 mm
08:40 AM 65.7°F18.7°C 61.0°F16.1°C 85% 9.2 mph WSW14.8 kmh WSW 13.8 mph22.2 kmh 29.62 in1003.0 mb - 0.00 in0.0 mm 0.06 in1.5 mm
08:50 AM 64.7°F18.2°C 60.8°F16.0°C 87% 6.9 mph W11.1 kmh W 16.1 mph25.9 kmh 29.63 in1003.4 mb - 0.00 in0.0 mm 0.06 in1.5 mm
09:00 AM 63.8°F17.7°C 60.2°F15.7°C 88% 5.8 mph WSW9.3 kmh WSW 9.2 mph14.8 kmh 29.63 in1003.4 mb - 0.00 in0.0 mm 0.06 in1.5 mm
09:10 AM 63.9°F17.7°C 60.3°F15.7°C 88% 8.1 mph WSW13.0 kmh WSW 15.0 mph24.1 kmh 29.63 in1003.4 mb - 0.00 in0.0 mm 0.06 in1.5 mm
09:20 AM 65.9°F18.8°C 61.6°F16.4°C 86% 13.8 mph NW22.2 kmh NW 23.0 mph37.0 kmh 29.63 in1003.4 mb - 0.00 in0.0 mm 0.06 in1.5 mm
09:30 AM 66.6°F19.2°C 61.3°F16.3°C 83% 10.4 mph NW16.7 kmh NW 19.6 mph31.5 kmh 29.63 in1003.4 mb - 0.00 in0.0 mm 0.06 in1.5 mm
09:40 AM 67.1°F19.5°C 61.4°F16.3°C 82% 10.4 mph WNW16.7 kmh WNW 20.7 mph33.3 kmh 29.63 in1003.4 mb - 0.00 in0.0 mm 0.06 in1.5 mm
09:50 AM 65.3°F18.5°C 60.6°F15.9°C 85% 5.8 mph WSW9.3 kmh WSW 15.0 mph24.1 kmh 29.63 in1003.4 mb - 0.00 in0.0 mm 0.06 in1.5 mm
10:00 AM 65.1°F18.4°C 60.8°F16.0°C 86% 10.4 mph NW16.7 kmh NW 21.9 mph35.2 kmh 29.63 in1003.4 mb - 0.00 in0.0 mm 0.06 in1.5 mm
10:10 AM 65.7°F18.7°C 61.7°F16.5°C 87% 8.1 mph W13.0 kmh W 20.7 mph33.3 kmh 29.63 in1003.4 mb - 0.00 in0.0 mm 0.06 in1.5 mm
10:20 AM 65.5°F18.6°C 60.2°F15.7°C 83% 8.1 mph W13.0 kmh W 18.4 mph29.6 kmh 29.63 in1003.4 mb - 0.00 in0.0 mm 0.06 in1.5 mm
10:30 AM 65.4°F18.6°C 60.1°F15.6°C 83% 10.4 mph WNW16.7 kmh WNW 17.3 mph27.8 kmh 29.63 in1003.4 mb - 0.00 in0.0 mm 0.06 in1.5 mm
10:40 AM 66.8°F19.3°C 61.1°F16.2°C 82% 3.5 mph WSW5.6 kmh WSW 11.5 mph18.5 kmh 29.62 in1003.0 mb - 0.00 in0.0 mm 0.06 in1.5 mm
10:50 AM 67.6°F19.8°C 61.6°F16.4°C 81% 10.4 mph WSW16.7 kmh WSW 11.5 mph18.5 kmh 29.62 in1003.0 mb - 0.00 in0.0 mm 0.06 in1.5 mm
11:00 AM 65.4°F18.6°C 60.8°F16.0°C 85% 12.7 mph NW20.4 kmh NW 19.6 mph31.5 kmh 29.63 in1003.4 mb - 0.01 in0.3 mm 0.07 in1.8 mm
11:10 AM 65.4°F18.6°C 60.1°F15.6°C 83% 12.7 mph WNW20.4 kmh WNW 17.3 mph27.8 kmh 29.63 in1003.4 mb - 0.00 in0.0 mm 0.07 in1.8 mm
11:20 AM 65.5°F18.6°C 59.6°F15.3°C 81% 6.9 mph W11.1 kmh W 20.7 mph33.3 kmh 29.63 in1003.4 mb - 0.00 in0.0 mm 0.07 in1.8 mm
11:30 AM 65.8°F18.8°C 59.4°F15.2°C 80% 6.9 mph W11.1 kmh W 12.7 mph20.4 kmh 29.63 in1003.4 mb - 0.00 in0.0 mm 0.07 in1.8 mm
11:40 AM 66.3°F19.1°C 59.2°F15.1°C 78% 13.8 mph WNW22.2 kmh WNW 18.4 mph29.6 kmh 29.63 in1003.4 mb - 0.00 in0.0 mm 0.07 in1.8 mm
11:50 AM 67.2°F19.6°C 60.5°F15.8°C 79% 4.6 mph W7.4 kmh W 11.5 mph18.5 kmh 29.63 in1003.4 mb - 0.00 in0.0 mm 0.07 in1.8 mm
12:00 PM 68.2°F20.1°C 59.9°F15.5°C 75% 6.9 mph W11.1 kmh W 11.5 mph18.5 kmh 29.63 in1003.4 mb - 0.00 in0.0 mm 0.07 in1.8 mm
12:10 PM 68.9°F20.5°C 60.3°F15.7°C 74% 12.7 mph NW20.4 kmh NW 13.8 mph22.2 kmh 29.62 in1003.0 mb - 0.00 in0.0 mm 0.07 in1.8 mm
12:20 PM 69.0°F20.6°C 60.4°F15.8°C 74% 5.8 mph WNW9.3 kmh WNW 17.3 mph27.8 kmh 29.62 in1003.0 mb - 0.00 in0.0 mm 0.07 in1.8 mm
12:30 PM 68.8°F20.4°C 60.2°F15.7°C 74% 6.9 mph WSW11.1 kmh WSW 9.2 mph14.8 kmh 29.62 in1003.0 mb - 0.00 in0.0 mm 0.07 in1.8 mm
12:40 PM 69.5°F20.8°C 60.1°F15.6°C 72% 3.5 mph WSW5.6 kmh WSW 16.1 mph25.9 kmh 29.62 in1003.0 mb - 0.00 in0.0 mm 0.07 in1.8 mm
12:50 PM 69.6°F20.9°C 59.0°F15.0°C 69% 13.8 mph WNW22.2 kmh WNW 23.0 mph37.0 kmh 29.62 in1003.0 mb - 0.00 in0.0 mm 0.07 in1.8 mm
01:00 PM 70.0°F21.1°C 59.8°F15.4°C 70% 6.9 mph WSW11.1 kmh WSW 15.0 mph24.1 kmh 29.61 in1002.7 mb - 0.00 in0.0 mm 0.07 in1.8 mm
01:10 PM 69.8°F21.0°C 59.9°F15.5°C 71% 6.9 mph NW11.1 kmh NW 12.7 mph20.4 kmh 29.62 in1003.0 mb - 0.00 in0.0 mm 0.07 in1.8 mm
01:20 PM 70.6°F21.4°C 59.5°F15.3°C 68% 9.2 mph WNW14.8 kmh WNW 15.0 mph24.1 kmh 29.62 in1003.0 mb - 0.00 in0.0 mm 0.07 in1.8 mm
01:30 PM 70.2°F21.2°C 60.4°F15.8°C 71% 3.5 mph WSW5.6 kmh WSW 5.8 mph9.3 kmh 29.62 in1003.0 mb - 0.00 in0.0 mm 0.07 in1.8 mm
01:40 PM 70.3°F21.3°C 60.0°F15.6°C 70% 10.4 mph NW16.7 kmh NW 17.3 mph27.8 kmh 29.61 in1002.7 mb - 0.00 in0.0 mm 0.07 in1.8 mm
01:50 PM 70.3°F21.3°C 59.3°F15.2°C 68% 10.4 mph NW16.7 kmh NW 12.7 mph20.4 kmh 29.61 in1002.7 mb - 0.00 in0.0 mm 0.07 in1.8 mm
02:00 PM 70.6°F21.4°C 60.3°F15.7°C 70% 9.2 mph NW14.8 kmh NW 13.8 mph22.2 kmh 29.61 in1002.7 mb - 0.00 in0.0 mm 0.07 in1.8 mm
02:10 PM 69.6°F20.9°C 58.6°F14.8°C 68% 6.9 mph NW11.1 kmh NW 16.1 mph25.9 kmh 29.62 in1003.0 mb - 0.00 in0.0 mm 0.07 in1.8 mm
02:20 PM 69.7°F20.9°C 58.3°F14.6°C 67% 6.9 mph WNW11.1 kmh WNW 11.5 mph18.5 kmh 29.62 in1003.0 mb - 0.00 in0.0 mm 0.07 in1.8 mm
02:30 PM 69.5°F20.8°C 58.5°F14.7°C 68% 5.8 mph W9.3 kmh W 19.6 mph31.5 kmh 29.63 in1003.4 mb - 0.00 in0.0 mm 0.07 in1.8 mm
02:40 PM 68.7°F20.4°C 58.1°F14.5°C 69% 8.1 mph NW13.0 kmh NW 12.7 mph20.4 kmh 29.63 in1003.4 mb - 0.00 in0.0 mm 0.07 in1.8 mm
02:50 PM 68.5°F20.3°C 57.9°F14.4°C 69% 6.9 mph W11.1 kmh W 11.5 mph18.5 kmh 29.62 in1003.0 mb - 0.00 in0.0 mm 0.07 in1.8 mm
03:00 PM 68.4°F20.2°C 58.7°F14.8°C 71% 4.6 mph WSW7.4 kmh WSW 10.4 mph16.7 kmh 29.62 in1003.0 mb - 0.00 in0.0 mm 0.07 in1.8 mm
03:10 PM 68.5°F20.3°C 58.8°F14.9°C 71% 9.2 mph WNW14.8 kmh WNW 15.0 mph24.1 kmh 29.62 in1003.0 mb - 0.00 in0.0 mm 0.07 in1.8 mm
03:20 PM 68.0°F20.0°C 58.6°F14.8°C 72% 6.9 mph W11.1 kmh W 13.8 mph22.2 kmh 29.62 in1003.0 mb - 0.00 in0.0 mm 0.07 in1.8 mm
03:30 PM 67.9°F19.9°C 57.7°F14.3°C 70% 5.8 mph W9.3 kmh W 10.4 mph16.7 kmh 29.62 in1003.0 mb - 0.00 in0.0 mm 0.07 in1.8 mm
03:40 PM 67.7°F19.8°C 57.6°F14.2°C 70% 9.2 mph W14.8 kmh W 12.7 mph20.4 kmh 29.63 in1003.4 mb - 0.00 in0.0 mm 0.07 in1.8 mm
03:50 PM 66.9°F19.4°C 58.3°F14.6°C 74% 6.9 mph WNW11.1 kmh WNW 20.7 mph33.3 kmh 29.62 in1003.0 mb - 0.00 in0.0 mm 0.07 in1.8 mm
04:00 PM 65.8°F18.8°C 57.7°F14.3°C 75% 10.4 mph WNW16.7 kmh WNW 11.5 mph18.5 kmh 29.62 in1003.0 mb - 0.00 in0.0 mm 0.07 in1.8 mm
04:10 PM 65.8°F18.8°C 57.7°F14.3°C 75% 6.9 mph W11.1 kmh W 13.8 mph22.2 kmh 29.63 in1003.4 mb - 0.00 in0.0 mm 0.07 in1.8 mm
04:20 PM 65.5°F18.6°C 58.1°F14.5°C 77% 2.3 mph WSW3.7 kmh WSW 9.2 mph14.8 kmh 29.62 in1003.0 mb - 0.00 in0.0 mm 0.07 in1.8 mm
04:30 PM 65.6°F18.7°C 57.8°F14.3°C 76% 11.5 mph NW18.5 kmh NW 20.7 mph33.3 kmh 29.61 in1002.7 mb - 0.00 in0.0 mm 0.07 in1.8 mm
04:40 PM 65.4°F18.6°C 57.3°F14.1°C 75% 8.1 mph WNW13.0 kmh WNW 16.1 mph25.9 kmh 29.61 in1002.7 mb - 0.00 in0.0 mm 0.07 in1.8 mm
04:50 PM 65.5°F18.6°C 57.7°F14.3°C 76% 10.4 mph NW16.7 kmh NW 18.4 mph29.6 kmh 29.62 in1003.0 mb - 0.00 in0.0 mm 0.07 in1.8 mm
05:00 PM 64.9°F18.3°C 57.9°F14.4°C 78% 10.4 mph W16.7 kmh W 20.7 mph33.3 kmh 29.63 in1003.4 mb - 0.00 in0.0 mm 0.07 in1.8 mm
05:10 PM 63.6°F17.6°C 58.0°F14.4°C 82% 9.2 mph WNW14.8 kmh WNW 19.6 mph31.5 kmh 29.63 in1003.4 mb - 0.00 in0.0 mm 0.07 in1.8 mm
05:20 PM 63.5°F17.5°C 56.5°F13.6°C 78% 5.8 mph W9.3 kmh W 11.5 mph18.5 kmh 29.63 in1003.4 mb - 0.00 in0.0 mm 0.07 in1.8 mm
05:30 PM 63.6°F17.6°C 55.5°F13.1°C 75% 8.1 mph WNW13.0 kmh WNW 16.1 mph25.9 kmh 29.63 in1003.4 mb - 0.00 in0.0 mm 0.07 in1.8 mm
05:40 PM 63.8°F17.7°C 56.1°F13.4°C 76% 9.2 mph WNW14.8 kmh WNW 17.3 mph27.8 kmh 29.63 in1003.4 mb - 0.00 in0.0 mm 0.07 in1.8 mm
05:50 PM 63.8°F17.7°C 56.5°F13.6°C 77% 5.8 mph W9.3 kmh W 13.8 mph22.2 kmh 29.64 in1003.7 mb - 0.00 in0.0 mm 0.07 in1.8 mm
06:00 PM 63.9°F17.7°C 56.9°F13.8°C 78% 10.4 mph NW16.7 kmh NW 19.6 mph31.5 kmh 29.64 in1003.7 mb - 0.00 in0.0 mm 0.07 in1.8 mm
06:10 PM 63.9°F17.7°C 56.9°F13.8°C 78% 8.1 mph W13.0 kmh W 12.7 mph20.4 kmh 29.64 in1003.7 mb - 0.00 in0.0 mm 0.07 in1.8 mm
06:20 PM 63.7°F17.6°C 56.7°F13.7°C 78% 6.9 mph WNW11.1 kmh WNW 11.5 mph18.5 kmh 29.64 in1003.7 mb - 0.00 in0.0 mm 0.07 in1.8 mm
06:30 PM 63.4°F17.4°C 56.5°F13.6°C 78% 9.2 mph WNW14.8 kmh WNW 20.7 mph33.3 kmh 29.64 in1003.7 mb - 0.00 in0.0 mm 0.07 in1.8 mm
06:40 PM 62.8°F17.1°C 56.9°F13.8°C 81% 11.5 mph WSW18.5 kmh WSW 16.1 mph25.9 kmh 29.65 in1004.1 mb - 0.00 in0.0 mm 0.07 in1.8 mm
06:50 PM 60.4°F15.8°C 55.6°F13.1°C 84% Calm Calm -- 29.64 in1003.7 mb - 0.01 in0.3 mm 0.08 in2.0 mm
07:00 PM 60.1°F15.6°C 56.2°F13.4°C 87% Calm Calm 5.8 mph9.3 kmh 29.64 in1003.7 mb - 0.00 in0.0 mm 0.08 in2.0 mm
07:10 PM 60.2°F15.7°C 56.6°F13.7°C 88% 5.8 mph W9.3 kmh W 11.5 mph18.5 kmh 29.64 in1003.7 mb - 0.00 in0.0 mm 0.08 in2.0 mm
07:20 PM 60.5°F15.8°C 56.9°F13.8°C 88% 2.3 mph W3.7 kmh W 6.9 mph11.1 kmh 29.64 in1003.7 mb - 0.00 in0.0 mm 0.08 in2.0 mm
07:30 PM 60.6°F15.9°C 57.0°F13.9°C 88% 1.2 mph NW1.9 kmh NW 8.1 mph13.0 kmh 29.63 in1003.4 mb - 0.00 in0.0 mm 0.08 in2.0 mm
07:40 PM 60.5°F15.8°C 56.6°F13.7°C 87% Calm Calm -- 29.63 in1003.4 mb - 0.00 in0.0 mm 0.08 in2.0 mm
07:50 PM 60.6°F15.9°C 56.7°F13.7°C 87% Calm Calm 5.8 mph9.3 kmh 29.63 in1003.4 mb - 0.00 in0.0 mm 0.08 in2.0 mm
08:00 PM 60.8°F16.0°C 56.6°F13.7°C 86% 3.5 mph W5.6 kmh W 8.1 mph13.0 kmh 29.64 in1003.7 mb - 0.00 in0.0 mm 0.08 in2.0 mm
08:10 PM 61.2°F16.2°C 57.0°F13.9°C 86% 4.6 mph WNW7.4 kmh WNW 16.1 mph25.9 kmh 29.65 in1004.1 mb - 0.00 in0.0 mm 0.08 in2.0 mm
08:20 PM 61.4°F16.3°C 56.9°F13.8°C 85% 5.8 mph NW9.3 kmh NW 8.1 mph13.0 kmh 29.65 in1004.1 mb - 0.00 in0.0 mm 0.08 in2.0 mm
08:30 PM 61.3°F16.3°C 56.8°F13.8°C 85% 9.2 mph NW14.8 kmh NW 16.1 mph25.9 kmh 29.66 in1004.4 mb - 0.00 in0.0 mm 0.08 in2.0 mm
08:40 PM 61.5°F16.4°C 57.0°F13.9°C 85% 8.1 mph WNW13.0 kmh WNW 11.5 mph18.5 kmh 29.67 in1004.7 mb - 0.00 in0.0 mm 0.08 in2.0 mm
08:50 PM 61.7°F16.5°C 57.1°F13.9°C 85% 3.5 mph NW5.6 kmh NW 9.2 mph14.8 kmh 29.67 in1004.7 mb - 0.00 in0.0 mm 0.08 in2.0 mm
09:00 PM 61.7°F16.5°C 57.1°F13.9°C 85% 6.9 mph WNW11.1 kmh WNW 13.8 mph22.2 kmh 29.68 in1005.1 mb - 0.00 in0.0 mm 0.08 in2.0 mm
09:10 PM 61.5°F16.4°C 57.3°F14.1°C 86% 3.5 mph WNW5.6 kmh WNW 9.2 mph14.8 kmh 29.68 in1005.1 mb - 0.00 in0.0 mm 0.08 in2.0 mm
09:20 PM 60.9°F16.1°C 56.7°F13.7°C 86% 2.3 mph WSW3.7 kmh WSW 13.8 mph22.2 kmh 29.69 in1005.4 mb - 0.00 in0.0 mm 0.08 in2.0 mm
09:30 PM 59.8°F15.4°C 55.6°F13.1°C 86% Calm Calm 3.5 mph5.6 kmh 29.69 in1005.4 mb - 0.00 in0.0 mm 0.08 in2.0 mm
09:40 PM 59.7°F15.4°C 56.1°F13.4°C 88% 1.2 mph WSW1.9 kmh WSW 8.1 mph13.0 kmh 29.69 in1005.4 mb - 0.00 in0.0 mm 0.08 in2.0 mm
09:50 PM 59.9°F15.5°C 56.3°F13.5°C 88% 8.1 mph WNW13.0 kmh WNW 17.3 mph27.8 kmh 29.70 in1005.8 mb - 0.00 in0.0 mm 0.08 in2.0 mm
10:00 PM 59.4°F15.2°C 56.5°F13.6°C 90% 1.2 mph WSW1.9 kmh WSW 9.2 mph14.8 kmh 29.70 in1005.8 mb - 0.01 in0.3 mm 0.09 in2.3 mm
10:10 PM 59.1°F15.1°C 56.4°F13.6°C 91% 1.2 mph WSW1.9 kmh WSW -- 29.70 in1005.8 mb - 0.00 in0.0 mm 0.09 in2.3 mm
10:20 PM 59.0°F15.0°C 56.4°F13.6°C 91% 2.3 mph WSW3.7 kmh WSW 10.4 mph16.7 kmh 29.70 in1005.8 mb - 0.00 in0.0 mm 0.09 in2.3 mm
10:30 PM 59.4°F15.2°C 56.8°F13.8°C 91% 1.2 mph W1.9 kmh W 8.1 mph13.0 kmh 29.69 in1005.4 mb - 0.00 in0.0 mm 0.09 in2.3 mm
10:40 PM 59.4°F15.2°C 56.8°F13.8°C 91% Calm Calm 6.9 mph11.1 kmh 29.69 in1005.4 mb - 0.00 in0.0 mm 0.09 in2.3 mm
10:50 PM 59.3°F15.2°C 56.7°F13.7°C 91% 4.6 mph NW7.4 kmh NW 10.4 mph16.7 kmh 29.70 in1005.8 mb - 0.00 in0.0 mm 0.09 in2.3 mm
11:00 PM 59.4°F15.2°C 56.5°F13.6°C 90% 2.3 mph WSW3.7 kmh WSW 8.1 mph13.0 kmh 29.70 in1005.8 mb - 0.00 in0.0 mm 0.09 in2.3 mm
11:10 PM 59.6°F15.3°C 56.7°F13.7°C 90% 1.2 mph W1.9 kmh W 11.5 mph18.5 kmh 29.69 in1005.4 mb - 0.00 in0.0 mm 0.09 in2.3 mm
11:20 PM 59.9°F15.5°C 57.0°F13.9°C 90% 1.2 mph W1.9 kmh W 9.2 mph14.8 kmh 29.70 in1005.8 mb - 0.00 in0.0 mm 0.09 in2.3 mm
11:30 PM 60.1°F15.6°C 57.2°F14.0°C 90% Calm Calm -- 29.70 in1005.8 mb - 0.00 in0.0 mm 0.09 in2.3 mm
11:40 PM 60.0°F15.6°C 57.1°F13.9°C 90% Calm Calm -- 29.70 in1005.8 mb - 0.00 in0.0 mm 0.09 in2.3 mm
11:50 PM 60.0°F15.6°C 57.0°F13.9°C 90% 2.3 mph WSW3.7 kmh WSW 3.5 mph5.6 kmh 29.70 in1005.8 mb - 0.00 in0.0 mm 0.09 in2.3 mm